Terminal Aerodrome Forecast
Issued by NWS

Home | Current Version | Previous Version | Text Only | Print | Product List | Glossary On
Versions: 1 2 3 4 5 6 7 8 9 10 11 12 13 14 15 16 17 18 19 20 21 22 23 24 25 26 27 28 29 30 31 32 33 34 35 36 37 38 39 40 41 42 43 44 45 46 47 48
529
FTUS42 KMFL 231507 AAA
TAFTMB
TAF AMD
KTMB 231507Z 2315/2412 12012KT P6SM SCT030
     FM231700 12014G20KT P6SM SCT250
     FM232200 10010KT P6SM FEW250
     FM240600 11006KT P6SM FEW250=

USA.gov is the U.S. government's official web portal to all federal, state and local government web resources and services.